Time;durP1;ratioP1;P1;durP2;ratioP2;P2;SDS_P1;SDS_P2;PMS_P1;PMS_P2;Temp;Humidity;BMP_temperature;BMP_pressure;BME280_temperature;BME280_humidity;BME280_pressure;Samples;Min_cycle;Max_cycle;Signal;HPM_P1;HPM_P2
2021/05/26 00:02:04;;;;;;;13.43;7.80;;;9.90;99.90;;;;;;4743145;30;20421;-77
2021/05/26 00:04:31;;;;;;;17.80;10.02;;;9.90;99.90;;;;;;4742788;30;20049;-77
2021/05/26 00:06:58;;;;;;;13.18;7.65;;;9.90;99.90;;;;;;4727752;30;20075;-79
2021/05/26 00:09:24;;;;;;;19.75;7.28;;;10.00;99.90;;;;;;4743935;30;20059;-79
2021/05/26 00:11:51;;;;;;;14.98;7.60;;;10.00;99.90;;;;;;4731069;30;20219;-79
2021/05/26 00:14:17;;;;;;;13.88;8.15;;;10.00;99.90;;;;;;4743246;30;20501;-79
2021/05/26 00:16:50;;;;;;;11.30;7.07;;;10.00;99.90;;;;;;4742483;30;20048;-79
2021/05/26 00:19:16;;;;;;;10.70;5.82;;;10.10;99.90;;;;;;4729484;30;20500;-79
2021/05/26 00:21:43;;;;;;;8.15;6.18;;;10.10;99.90;;;;;;4731786;30;20036;-77
2021/05/26 00:24:09;;;;;;;9.43;5.50;;;10.10;99.90;;;;;;4746590;30;20048;-77
2021/05/26 00:26:36;;;;;;;13.52;5.65;;;10.10;99.90;;;;;;4718137;30;20409;-77
2021/05/26 00:29:03;;;;;;;8.73;4.30;;;10.10;99.90;;;;;;4730928;30;20055;-78
2021/05/26 00:31:30;;;;;;;7.97;4.45;;;10.10;99.90;;;;;;4731779;30;20044;-77
2021/05/26 00:33:56;;;;;;;8.63;4.15;;;10.10;99.90;;;;;;4747002;30;20057;-77
2021/05/26 00:36:23;;;;;;;11.55;4.57;;;10.10;99.90;;;;;;4744795;30;20898;-77
2021/05/26 00:38:49;;;;;;;6.20;4.03;;;10.10;99.90;;;;;;4731999;30;20087;-78
2021/05/26 00:41:16;;;;;;;10.55;3.92;;;10.10;99.90;;;;;;4721847;30;20048;-77
2021/05/26 00:43:42;;;;;;;7.97;3.47;;;10.10;99.90;;;;;;4731797;30;20056;-77
2021/05/26 00:46:09;;;;;;;7.63;3.53;;;10.00;99.90;;;;;;4728695;30;20063;-77
2021/05/26 00:48:36;;;;;;;6.25;2.47;;;10.00;99.90;;;;;;4728741;30;20044;-77
2021/05/26 00:51:03;;;;;;;6.25;1.55;;;9.90;99.90;;;;;;4743574;30;20402;-77
2021/05/26 00:53:30;;;;;;;2.97;1.15;;;9.90;99.90;;;;;;4743768;30;20048;-78
2021/05/26 00:55:57;;;;;;;3.55;1.05;;;9.80;99.90;;;;;;4741548;30;20072;-77
2021/05/26 00:58:25;;;;;;;3.22;1.15;;;9.70;99.90;;;;;;4730068;30;20063;-77
2021/05/26 01:00:52;;;;;;;2.13;0.90;;;9.70;99.90;;;;;;4745335;30;20050;-77
2021/05/26 01:03:22;;;;;;;3.45;0.60;;;9.70;99.90;;;;;;4729944;30;20425;-78
2021/05/26 01:05:48;;;;;;;3.05;0.50;;;9.70;99.90;;;;;;4726406;30;20071;-77
2021/05/26 01:08:15;;;;;;;2.08;0.55;;;9.60;99.90;;;;;;4729334;30;20552;-77
2021/05/26 01:10:43;;;;;;;2.83;0.60;;;9.70;99.90;;;;;;4728741;30;20516;-77
2021/05/26 01:13:12;;;;;;;3.60;0.60;;;9.70;99.90;;;;;;4745149;30;20535;-77
2021/05/26 01:15:40;;;;;;;2.78;0.70;;;9.70;99.90;;;;;;4725335;30;20051;-77
2021/05/26 01:18:26;;;;;;;2.88;1.00;;;9.70;99.90;;;;;;4743388;30;20045;-77
2021/05/26 01:20:58;;;;;;;1.35;0.50;;;9.70;99.90;;;;;;4743864;30;20039;-77
2021/05/26 01:23:27;;;;;;;5.22;0.65;;;9.70;99.90;;;;;;4713956;30;20591;-77
2021/05/26 01:26:03;;;;;;;1.25;0.52;;;9.60;99.90;;;;;;4726846;30;20051;-77
2021/05/26 01:28:32;;;;;;;4.13;0.73;;;9.60;99.90;;;;;;4744580;30;20044;-77
2021/05/26 01:31:01;;;;;;;3.85;1.55;;;9.60;99.90;;;;;;4743914;30;20409;-77
2021/05/26 01:33:30;;;;;;;2.13;0.90;;;9.60;99.90;;;;;;4728160;30;20391;-78
2021/05/26 01:36:01;;;;;;;4.63;1.60;;;9.70;99.90;;;;;;4740112;30;20059;-78
2021/05/26 01:38:27;;;;;;;2.55;0.95;;;9.70;99.90;;;;;;4730135;30;20044;-77
2021/05/26 01:41:00;;;;;;;2.15;0.63;;;9.70;99.90;;;;;;4735521;30;20535;-77
2021/05/26 01:43:34;;;;;;;2.83;0.85;;;9.70;99.90;;;;;;4729872;30;20044;-77
2021/05/26 01:46:02;;;;;;;4.75;1.45;;;9.70;99.90;;;;;;4725994;30;20040;-77
2021/05/26 01:48:32;;;;;;;2.83;1.10;;;9.70;99.90;;;;;;4744139;30;20056;-77
2021/05/26 01:50:59;;;;;;;3.60;1.20;;;9.70;99.90;;;;;;4730696;30;20134;-77
2021/05/26 01:53:27;;;;;;;4.65;1.70;;;9.70;99.90;;;;;;4715838;30;20048;-77
2021/05/26 01:55:54;;;;;;;2.80;1.10;;;9.60;99.90;;;;;;4727845;30;20059;-77
2021/05/26 01:58:21;;;;;;;3.20;0.75;;;9.60;99.90;;;;;;4715903;30;20071;-77
2021/05/26 02:00:50;;;;;;;2.40;0.65;;;9.60;99.90;;;;;;4716616;30;20059;-78
2021/05/26 02:03:17;;;;;;;4.50;1.23;;;9.60;99.90;;;;;;4729768;30;20509;-77
2021/05/26 02:05:44;;;;;;;1.95;0.80;;;9.60;99.90;;;;;;4713779;30;20059;-77
2021/05/26 02:08:13;;;;;;;2.40;0.60;;;9.50;99.90;;;;;;4715174;30;20068;-77
2021/05/26 02:13:25;;;;;;;2.08;0.63;;;9.50;99.90;;;;;;4729335;30;20055;-78
2021/05/26 02:15:59;;;;;;;2.22;0.60;;;9.50;99.90;;;;;;4729297;30;20063;-78
2021/05/26 02:18:30;;;;;;;2.47;0.52;;;9.50;99.90;;;;;;4729221;30;20409;-77
2021/05/26 02:20:58;;;;;;;2.10;0.80;;;9.50;99.90;;;;;;4744794;30;20604;-77
2021/05/26 02:23:25;;;;;;;1.77;0.40;;;9.50;99.90;;;;;;4730016;30;20614;-77
2021/05/26 02:25:52;;;;;;;2.55;0.60;;;9.50;99.90;;;;;;4742143;30;20481;-77
2021/05/26 02:28:19;;;;;;;1.20;0.50;;;9.50;99.90;;;;;;4746039;30;20508;-77
2021/05/26 02:30:45;;;;;;;2.47;0.60;;;9.60;99.90;;;;;;4701654;30;20060;-78
2021/05/26 02:33:12;;;;;;;3.05;0.90;;;9.60;99.90;;;;;;4744529;30;20048;-77
2021/05/26 02:35:40;;;;;;;1.98;0.70;;;9.60;99.90;;;;;;4726262;30;20841;-77
2021/05/26 02:38:07;;;;;;;1.90;0.70;;;9.60;99.90;;;;;;4733643;30;20044;-77
2021/05/26 02:40:34;;;;;;;2.63;0.70;;;9.60;99.90;;;;;;4728027;30;20048;-77
2021/05/26 02:43:05;;;;;;;1.77;0.70;;;9.60;99.90;;;;;;4729870;30;20052;-77
2021/05/26 02:45:32;;;;;;;2.15;0.63;;;9.60;99.90;;;;;;4739123;30;20063;-77
2021/05/26 02:48:00;;;;;;;1.65;0.73;;;9.60;99.90;;;;;;4743848;30;20051;-77
2021/05/26 02:50:29;;;;;;;3.55;1.02;;;9.60;99.90;;;;;;4728633;30;20055;-77
2021/05/26 02:52:57;;;;;;;1.35;0.77;;;9.60;99.90;;;;;;4727318;30;20056;-77
2021/05/26 02:55:25;;;;;;;2.33;1.40;;;9.70;99.90;;;;;;4729240;30;20398;-78
2021/05/26 02:58:12;;;;;;;4.20;1.42;;;9.70;99.90;;;;;;4720758;30;20067;-78
2021/05/26 03:00:57;;;;;;;3.40;1.13;;;9.70;99.90;;;;;;4745679;30;20052;-78
2021/05/26 03:03:44;;;;;;;4.80;1.83;;;9.70;99.90;;;;;;4717121;30;20052;-78
2021/05/26 03:06:19;;;;;;;3.88;1.70;;;9.70;99.90;;;;;;4727699;30;20049;-78
2021/05/26 03:08:47;;;;;;;4.85;1.65;;;9.60;99.90;;;;;;4731459;30;20044;-78
2021/05/26 03:11:17;;;;;;;2.83;1.13;;;9.60;99.90;;;;;;4730356;30;20507;-78
2021/05/26 03:13:59;;;;;;;3.17;1.52;;;9.50;99.90;;;;;;4726084;30;20055;-78
2021/05/26 03:16:26;;;;;;;4.20;1.67;;;9.50;99.90;;;;;;4742918;30;20052;-78
2021/05/26 03:18:53;;;;;;;3.55;1.88;;;9.40;99.90;;;;;;4715057;30;20052;-78
2021/05/26 03:21:20;;;;;;;3.35;2.30;;;9.50;99.90;;;;;;4716341;30;20416;-78
2021/05/26 03:24:04;;;;;;;2.95;1.40;;;9.50;99.90;;;;;;4743261;30;20048;-78
2021/05/26 03:26:34;;;;;;;2.85;1.70;;;9.40;99.90;;;;;;4728963;30;20048;-77
2021/05/26 03:29:01;;;;;;;3.10;1.20;;;9.50;99.90;;;;;;4713344;30;20052;-77
2021/05/26 03:31:29;;;;;;;2.13;1.05;;;9.40;99.90;;;;;;4729035;30;20052;-78
2021/05/26 03:33:56;;;;;;;1.92;0.82;;;9.40;99.90;;;;;;4733515;30;20389;-78
2021/05/26 03:36:23;;;;;;;1.83;1.20;;;9.50;99.90;;;;;;4726101;30;20036;-77
2021/05/26 03:38:50;;;;;;;4.18;1.80;;;9.40;99.90;;;;;;4743358;30;20056;-78
2021/05/26 03:41:17;;;;;;;7.70;2.20;;;9.50;99.90;;;;;;4727342;30;20078;-78
2021/05/26 03:43:44;;;;;;;5.65;2.63;;;9.50;99.90;;;;;;4717712;30;20056;-77
2021/05/26 03:46:12;;;;;;;4.90;3.03;;;9.50;99.90;;;;;;4745210;30;20059;-77
2021/05/26 03:48:38;;;;;;;8.05;5.15;;;9.50;99.90;;;;;;4733490;30;20052;-77
2021/05/26 03:51:05;;;;;;;11.13;6.03;;;9.60;99.90;;;;;;4733675;30;20074;-77
2021/05/26 03:53:35;;;;;;;14.98;9.15;;;9.60;99.90;;;;;;4732433;30;20067;-77
2021/05/26 03:56:06;;;;;;;12.15;7.15;;;9.60;99.90;;;;;;4744513;30;20044;-77
2021/05/26 03:58:34;;;;;;;12.05;8.13;;;9.60;99.90;;;;;;4748259;30;20056;-77
2021/05/26 04:01:07;;;;;;;15.98;8.75;;;9.60;99.90;;;;;;4732896;30;20509;-77
2021/05/26 04:03:36;;;;;;;11.68;8.55;;;9.70;99.90;;;;;;4718777;30;20056;-77
2021/05/26 04:06:04;;;;;;;12.95;9.75;;;9.70;99.90;;;;;;4743492;30;20040;-77
2021/05/26 04:08:30;;;;;;;14.18;9.80;;;9.70;99.90;;;;;;4718414;30;20036;-77
2021/05/26 04:10:57;;;;;;;20.00;10.55;;;9.80;99.90;;;;;;4733420;30;20052;-77
2021/05/26 04:13:46;;;;;;;13.57;10.18;;;9.80;99.90;;;;;;4732336;30;20393;-77
2021/05/26 04:16:36;;;;;;;12.52;8.88;;;9.80;99.90;;;;;;4734746;30;20060;-77
2021/05/26 04:19:18;;;;;;;20.60;10.43;;;9.90;99.90;;;;;;4745211;30;20048;-77
2021/05/26 04:21:45;;;;;;;17.77;11.57;;;9.90;99.90;;;;;;4730165;30;20059;-77
2021/05/26 04:24:13;;;;;;;16.45;10.60;;;10.00;99.90;;;;;;4717314;30;20047;-77
2021/05/26 04:26:39;;;;;;;15.07;9.90;;;10.00;99.90;;;;;;4728466;30;20055;-77
2021/05/26 04:29:09;;;;;;;17.77;10.27;;;10.10;99.90;;;;;;4729854;30;20044;-77
2021/05/26 04:31:40;;;;;;;18.17;10.20;;;10.10;99.90;;;;;;4731880;30;20036;-77
2021/05/26 04:34:06;;;;;;;16.52;9.85;;;10.10;99.90;;;;;;4730596;30;20409;-77
2021/05/26 04:36:33;;;;;;;18.67;9.80;;;10.20;99.90;;;;;;4744519;30;20500;-77
2021/05/26 04:38:59;;;;;;;16.25;10.05;;;10.20;99.90;;;;;;4716710;30;20051;-77
2021/05/26 04:41:27;;;;;;;19.75;11.50;;;10.20;99.90;;;;;;4729285;30;20052;-77
2021/05/26 04:43:54;;;;;;;20.15;11.00;;;10.30;99.90;;;;;;4747112;30;20074;-77
2021/05/26 04:46:20;;;;;;;16.30;11.75;;;10.30;99.90;;;;;;4728447;30;20043;-77
2021/05/26 04:48:47;;;;;;;36.08;14.90;;;10.30;99.90;;;;;;4717557;30;20043;-77
2021/05/26 04:51:13;;;;;;;24.63;12.10;;;10.30;99.90;;;;;;4730228;30;20051;-77
2021/05/26 04:53:40;;;;;;;20.95;12.23;;;10.30;99.90;;;;;;4731910;30;20044;-77
2021/05/26 04:56:06;;;;;;;19.13;9.32;;;10.30;99.90;;;;;;4727134;30;20910;-77
2021/05/26 04:58:33;;;;;;;21.08;10.27;;;10.40;99.90;;;;;;4737094;30;20056;-77
2021/05/26 05:01:00;;;;;;;21.50;10.52;;;10.40;99.90;;;;;;4729497;30;20044;-77
2021/05/26 05:03:26;;;;;;;20.98;10.40;;;10.40;99.90;;;;;;4746237;30;20056;-77
2021/05/26 05:05:53;;;;;;;15.10;7.57;;;10.40;99.90;;;;;;4729108;30;20096;-77
2021/05/26 05:08:19;;;;;;;17.73;9.80;;;10.40;99.90;;;;;;4730926;30;20516;-77
2021/05/26 05:10:46;;;;;;;18.27;7.60;;;10.50;99.90;;;;;;4706498;30;20048;-77
2021/05/26 05:13:12;;;;;;;17.20;7.43;;;10.40;99.90;;;;;;4745889;30;20059;-77
2021/05/26 05:15:39;;;;;;;13.73;7.18;;;10.40;99.90;;;;;;4726932;30;20149;-77
2021/05/26 05:18:05;;;;;;;14.80;7.22;;;10.40;99.90;;;;;;4730596;30;20421;-77
2021/05/26 05:20:32;;;;;;;17.50;7.00;;;10.40;99.90;;;;;;4729520;30;20461;-78
2021/05/26 05:22:58;;;;;;;20.13;7.93;;;10.40;99.90;;;;;;4746407;30;20055;-79
2021/05/26 05:25:25;;;;;;;15.13;6.88;;;10.40;99.90;;;;;;4731779;30;20048;-78
2021/05/26 05:27:52;;;;;;;18.42;8.35;;;10.40;99.90;;;;;;4744486;30;20056;-80
2021/05/26 05:30:19;;;;;;;18.08;7.18;;;10.50;99.90;;;;;;4745279;30;20040;-80
2021/05/26 05:32:45;;;;;;;15.45;8.38;;;10.50;99.90;;;;;;4717216;30;20067;-79
2021/05/26 05:35:27;;;;;;;14.48;6.20;;;10.50;99.90;;;;;;4721000;30;20588;-79
2021/05/26 05:37:55;;;;;;;13.35;5.65;;;10.50;99.90;;;;;;4735459;30;20052;-80
2021/05/26 05:40:21;;;;;;;12.82;6.38;;;10.70;99.90;;;;;;4747312;30;20043;-81
2021/05/26 05:42:48;;;;;;;18.00;6.35;;;10.80;99.90;;;;;;4746269;30;20051;-78
2021/05/26 05:45:14;;;;;;;13.35;6.38;;;10.90;99.90;;;;;;4715278;30;20054;-78
2021/05/26 05:47:41;;;;;;;13.95;5.53;;;10.90;99.90;;;;;;4728790;30;20056;-78
2021/05/26 05:50:15;;;;;;;18.08;5.75;;;10.90;99.90;;;;;;4745081;30;20048;-78
2021/05/26 05:52:49;;;;;;;12.07;5.32;;;11.00;99.90;;;;;;4744158;30;20051;-78
2021/05/26 05:55:16;;;;;;;12.20;5.15;;;11.00;99.90;;;;;;4730756;30;20583;-79
2021/05/26 05:57:43;;;;;;;14.93;7.88;;;11.00;99.90;;;;;;4744788;30;20044;-80
2021/05/26 06:00:11;;;;;;;17.38;7.75;;;11.10;99.90;;;;;;4745552;30;20063;-79
2021/05/26 06:02:41;;;;;;;12.70;6.65;;;11.10;99.90;;;;;;4745087;30;20523;-79
2021/05/26 06:05:08;;;;;;;11.55;6.95;;;11.00;99.90;;;;;;4744727;30;20052;-80
2021/05/26 06:07:35;;;;;;;15.95;7.80;;;11.10;99.90;;;;;;4706935;30;20040;-79
2021/05/26 06:10:03;;;;;;;12.25;7.18;;;11.10;99.90;;;;;;4730524;30;20032;-79
2021/05/26 06:12:30;;;;;;;11.73;5.70;;;11.10;99.90;;;;;;4746272;30;20055;-80
2021/05/26 06:14:57;;;;;;;13.98;6.28;;;11.20;99.90;;;;;;4744037;30;20060;-80
2021/05/26 06:17:23;;;;;;;12.43;6.40;;;11.20;99.90;;;;;;4733133;30;20064;-79
2021/05/26 06:19:51;;;;;;;11.00;5.95;;;11.20;99.90;;;;;;4718735;30;20070;-79
2021/05/26 06:22:17;;;;;;;11.63;6.63;;;11.20;99.90;;;;;;4745825;30;20067;-79
2021/05/26 06:24:45;;;;;;;12.00;6.38;;;11.20;99.90;;;;;;4742499;30;20069;-79
2021/05/26 06:27:11;;;;;;;13.30;7.22;;;11.30;99.90;;;;;;4729719;30;20393;-79
2021/05/26 06:29:38;;;;;;;11.10;6.65;;;11.30;99.90;;;;;;4744183;30;20056;-79
2021/05/26 06:32:05;;;;;;;13.75;6.13;;;11.30;99.90;;;;;;4743988;30;20036;-79
2021/05/26 06:34:32;;;;;;;12.45;6.78;;;11.30;99.90;;;;;;4745604;30;20055;-79
2021/05/26 06:36:58;;;;;;;12.30;7.10;;;11.40;99.90;;;;;;4742691;30;20056;-80
2021/05/26 06:39:25;;;;;;;14.10;6.80;;;11.40;99.90;;;;;;4745791;30;20476;-80
2021/05/26 06:41:51;;;;;;;15.95;8.32;;;11.30;99.90;;;;;;4744715;30;20055;-79
2021/05/26 06:44:18;;;;;;;13.98;7.97;;;11.30;99.90;;;;;;4730015;30;20421;-79
2021/05/26 06:46:44;;;;;;;13.30;7.00;;;11.30;99.90;;;;;;4742857;30;20047;-79
2021/05/26 06:49:11;;;;;;;18.35;8.88;;;11.30;99.90;;;;;;4745732;30;20075;-79
2021/05/26 06:51:37;;;;;;;14.27;7.78;;;11.40;99.90;;;;;;4729279;30;20043;-79
2021/05/26 06:54:04;;;;;;;13.57;7.15;;;11.40;99.90;;;;;;4745921;30;20071;-79
2021/05/26 06:56:31;;;;;;;15.20;6.90;;;11.40;99.90;;;;;;4743121;30;20051;-79
2021/05/26 06:58:58;;;;;;;13.35;8.07;;;11.50;99.90;;;;;;4743631;30;20055;-79
2021/05/26 07:01:25;;;;;;;15.50;8.88;;;11.70;99.90;;;;;;4743495;30;20071;-79
2021/05/26 07:03:51;;;;;;;11.35;7.75;;;11.70;99.90;;;;;;4714304;30;20519;-79
2021/05/26 07:06:18;;;;;;;13.95;8.20;;;11.80;99.90;;;;;;4740957;30;20051;-79
2021/05/26 07:08:44;;;;;;;14.38;8.20;;;12.00;99.90;;;;;;4728079;30;20059;-79
2021/05/26 07:11:11;;;;;;;15.70;8.27;;;12.10;99.90;;;;;;4743208;30;20052;-79
2021/05/26 07:13:38;;;;;;;13.05;8.80;;;12.30;99.90;;;;;;4706857;30;20055;-79
2021/05/26 07:16:06;;;;;;;15.38;8.30;;;12.50;99.90;;;;;;4741817;30;20056;-79
2021/05/26 07:18:34;;;;;;;13.43;8.40;;;12.60;99.90;;;;;;4744398;30;20568;-79
2021/05/26 07:21:01;;;;;;;11.80;7.47;;;12.80;99.90;;;;;;4729685;30;20063;-79
2021/05/26 07:23:27;;;;;;;14.70;7.55;;;13.00;99.90;;;;;;4714436;30;20056;-79
2021/05/26 07:25:54;;;;;;;12.80;7.85;;;13.10;99.90;;;;;;4729090;30;20083;-79
2021/05/26 07:28:21;;;;;;;12.45;8.70;;;13.20;99.90;;;;;;4743577;30;20056;-79
2021/05/26 07:30:47;;;;;;;13.68;8.07;;;13.20;99.90;;;;;;4728747;30;20051;-79
2021/05/26 07:33:14;;;;;;;12.68;6.82;;;13.30;99.80;;;;;;4727848;30;20040;-79
2021/05/26 07:35:40;;;;;;;15.77;7.72;;;13.40;99.60;;;;;;4715471;30;20421;-79
2021/05/26 07:38:07;;;;;;;10.00;6.90;;;13.40;99.40;;;;;;4741363;30;20060;-79
2021/05/26 07:40:33;;;;;;;12.30;6.93;;;13.40;99.40;;;;;;4743196;30;20060;-79
2021/05/26 07:43:00;;;;;;;15.60;7.88;;;13.50;99.40;;;;;;4743984;30;20063;-78
2021/05/26 07:45:26;;;;;;;10.57;6.57;;;13.60;99.30;;;;;;4725878;30;20552;-78
2021/05/26 07:47:53;;;;;;;8.20;5.20;;;13.70;99.10;;;;;;4742781;30;20099;-77
2021/05/26 07:50:19;;;;;;;14.68;6.72;;;13.70;99.10;;;;;;4742891;30;20061;-78
2021/05/26 07:52:46;;;;;;;11.82;6.47;;;13.70;98.80;;;;;;4740745;30;20063;-78
2021/05/26 07:55:13;;;;;;;12.98;7.65;;;13.80;98.60;;;;;;4726359;30;20053;-78
2021/05/26 07:57:40;;;;;;;9.98;7.25;;;13.90;98.60;;;;;;4744383;30;20787;-78
2021/05/26 08:00:08;;;;;;;13.43;8.30;;;14.00;98.40;;;;;;4726145;30;20048;-78
2021/05/26 08:02:40;;;;;;;9.75;5.97;;;14.10;98.10;;;;;;4715842;30;20055;-79
2021/05/26 08:05:07;;;;;;;14.02;6.47;;;14.30;98.00;;;;;;4710944;30;20081;-79
2021/05/26 08:07:34;;;;;;;10.45;6.22;;;14.40;97.80;;;;;;4741370;30;20040;-78
2021/05/26 08:10:01;;;;;;;12.55;6.90;;;14.60;97.30;;;;;;4727576;30;20044;-78
2021/05/26 08:12:27;;;;;;;8.77;6.28;;;14.60;96.30;;;;;;4744596;30;20047;-77
2021/05/26 08:14:54;;;;;;;11.70;6.45;;;14.50;96.10;;;;;;4729564;30;20064;-79
2021/05/26 08:17:21;;;;;;;8.85;5.75;;;14.50;96.00;;;;;;4743383;30;20059;-78
2021/05/26 08:19:47;;;;;;;11.98;8.90;;;14.50;96.30;;;;;;4743497;30;20067;-78
2021/05/26 08:22:14;;;;;;;9.25;6.53;;;14.50;96.10;;;;;;4729618;30;20067;-78
2021/05/26 08:24:40;;;;;;;15.88;8.23;;;14.50;95.70;;;;;;4743544;30;20052;-78
2021/05/26 08:27:07;;;;;;;11.85;6.85;;;14.50;95.50;;;;;;4728286;30;20044;-78
2021/05/26 08:29:34;;;;;;;9.32;5.38;;;14.40;95.50;;;;;;4745404;30;20045;-78
2021/05/26 08:32:02;;;;;;;5.90;4.93;;;14.40;95.80;;;;;;4733746;30;20056;-78
2021/05/26 08:34:29;;;;;;;8.57;5.55;;;14.40;95.80;;;;;;4732098;30;20077;-79
2021/05/26 08:36:57;;;;;;;7.28;5.10;;;14.40;95.70;;;;;;4727944;30;20044;-78
2021/05/26 08:39:23;;;;;;;9.95;7.20;;;14.40;95.80;;;;;;4746895;30;20481;-78
2021/05/26 08:41:53;;;;;;;13.60;6.75;;;14.30;95.70;;;;;;4729100;30;20048;-80
2021/05/26 08:44:20;;;;;;;9.43;5.57;;;14.30;95.60;;;;;;4744562;30;20048;-80
2021/05/26 08:46:53;;;;;;;8.85;5.20;;;14.40;95.70;;;;;;4726009;30;20040;-77
2021/05/26 08:49:20;;;;;;;12.63;5.95;;;14.60;95.70;;;;;;4747193;30;20051;-78
2021/05/26 08:51:47;;;;;;;9.55;5.70;;;14.70;95.40;;;;;;4744834;30;20036;-78
2021/05/26 08:54:16;;;;;;;11.98;5.88;;;14.70;95.00;;;;;;4716969;30;20052;-78
2021/05/26 08:56:48;;;;;;;11.23;5.80;;;14.80;95.30;;;;;;4729483;30;20421;-78
2021/05/26 08:59:16;;;;;;;10.85;5.57;;;14.80;94.90;;;;;;4745646;30;20048;-78
2021/05/26 09:01:49;;;;;;;8.82;4.85;;;15.00;94.90;;;;;;4745709;30;20051;-78
2021/05/26 09:04:30;;;;;;;7.75;5.05;;;15.20;94.70;;;;;;4744891;30;20048;-78
2021/05/26 09:07:06;;;;;;;9.57;4.95;;;15.40;94.50;;;;;;4745354;30;20044;-78
2021/05/26 09:10:06;;;;;;;10.02;5.75;;;15.60;94.60;;;;;;4744578;30;20493;-78
2021/05/26 09:12:39;;;;;;;5.93;4.70;;;15.90;93.90;;;;;;4720635;30;20045;-78
2021/05/26 09:15:06;;;;;;;8.30;4.90;;;16.30;93.40;;;;;;4734388;30;20036;-78
2021/05/26 09:17:34;;;;;;;6.47;4.57;;;16.60;92.80;;;;;;4735671;30;20044;-78
2021/05/26 09:20:24;;;;;;;6.93;4.22;;;16.70;92.10;;;;;;4729169;30;21067;-78
2021/05/26 09:23:12;;;;;;;9.30;4.75;;;16.70;91.70;;;;;;4735764;30;20381;-78
2021/05/26 09:25:44;;;;;;;11.00;5.30;;;16.90;91.70;;;;;;4726508;30;20059;-78
2021/05/26 09:28:28;;;;;;;8.70;4.88;;;17.20;90.40;;;;;;4744043;30;20412;-79
2021/05/26 09:31:05;;;;;;;7.60;4.70;;;17.30;90.00;;;;;;4744881;30;20054;-78
2021/05/26 09:33:43;;;;;;;10.18;5.90;;;17.40;89.50;;;;;;4743241;30;20040;-78
2021/05/26 09:36:15;;;;;;;7.47;4.15;;;17.60;87.00;;;;;;4742783;30;20059;-78
2021/05/26 09:38:43;;;;;;;8.98;5.55;;;17.50;86.10;;;;;;4743048;30;20048;-78
2021/05/26 09:41:20;;;;;;;11.07;4.80;;;17.40;86.70;;;;;;4746168;30;20048;-78
2021/05/26 09:43:50;;;;;;;7.53;4.72;;;17.40;86.40;;;;;;4744754;30;20508;-78
2021/05/26 09:46:21;;;;;;;9.38;4.75;;;17.30;86.70;;;;;;4743873;30;20480;-78
2021/05/26 09:48:59;;;;;;;9.50;5.15;;;17.00;86.60;;;;;;4746239;30;20040;-78
2021/05/26 09:51:31;;;;;;;8.00;4.47;;;16.80;87.00;;;;;;4744834;30;20048;-78
2021/05/26 09:54:13;;;;;;;6.88;4.20;;;16.80;88.30;;;;;;4744201;30;20397;-78
2021/05/26 09:56:40;;;;;;;10.10;4.55;;;17.10;88.40;;;;;;4744215;30;20413;-78
2021/05/26 09:59:08;;;;;;;8.15;4.95;;;17.40;86.50;;;;;;4745851;30;20064;-77
2021/05/26 10:01:36;;;;;;;6.95;2.88;;;17.50;84.40;;;;;;4727337;30;20048;-76
2021/05/26 10:04:03;;;;;;;8.00;4.05;;;17.50;84.50;;;;;;4744304;30;20085;-76
2021/05/26 10:06:30;;;;;;;6.90;3.95;;;17.60;84.40;;;;;;4729017;30;20043;-76
2021/05/26 10:09:20;;;;;;;6.50;3.35;;;17.70;83.40;;;;;;4741981;30;20594;-76
2021/05/26 10:12:03;;;;;;;7.47;3.35;;;17.60;83.30;;;;;;4730304;30;20055;-77
2021/05/26 10:14:31;;;;;;;9.25;4.03;;;17.50;83.10;;;;;;4743644;30;20413;-77
2021/05/26 10:16:59;;;;;;;6.78;3.40;;;17.60;83.00;;;;;;4742691;30;20056;-77
2021/05/26 10:19:26;;;;;;;6.40;3.47;;;17.90;82.50;;;;;;4703580;30;20040;-77
2021/05/26 10:21:53;;;;;;;4.60;2.55;;;18.20;81.30;;;;;;4744556;30;20048;-78
2021/05/26 10:24:21;;;;;;;2.78;0.57;;;18.20;80.30;;;;;;4742688;30;20043;-78
2021/05/26 10:26:47;;;;;;;1.02;0.40;;;17.80;76.40;;;;;;4713679;30;20047;-77
2021/05/26 10:29:29;;;;;;;1.15;0.40;;;17.10;77.60;;;;;;4743597;30;20392;-76
2021/05/26 10:32:00;;;;;;;2.20;0.40;;;16.40;78.60;;;;;;4736990;30;20044;-77
2021/05/26 10:34:49;;;;;;;5.63;0.50;;;15.80;80.10;;;;;;4743856;30;20055;-81
2021/05/26 10:37:27;;;;;;;1.73;0.55;;;15.10;81.90;;;;;;4720606;30;20052;-78
2021/05/26 10:39:54;;;;;;;2.00;0.55;;;14.40;86.60;;;;;;4737159;30;20044;-77
2021/05/26 10:42:29;;;;;;;4.38;0.55;;;13.50;90.40;;;;;;4745441;30;20055;-78
2021/05/26 10:45:10;;;;;;;2.83;0.65;;;12.70;92.40;;;;;;4742552;30;20075;-78
2021/05/26 10:47:39;;;;;;;2.13;0.57;;;12.20;93.60;;;;;;4743697;30;20063;-78
2021/05/26 10:50:14;;;;;;;2.92;0.50;;;11.90;94.70;;;;;;4733567;30;20481;-78
2021/05/26 10:52:56;;;;;;;2.63;0.57;;;11.70;95.50;;;;;;4745204;30;20565;-78
2021/05/26 10:55:35;;;;;;;1.88;0.50;;;11.60;96.10;;;;;;4742200;30;20512;-77
2021/05/26 10:58:18;;;;;;;2.58;0.60;;;11.50;96.60;;;;;;4732630;30;20040;-78
2021/05/26 11:00:49;;;;;;;3.08;0.70;;;11.50;97.00;;;;;;4730346;30;20056;-78
2021/05/26 11:03:28;;;;;;;3.72;1.08;;;11.50;97.50;;;;;;4719956;30;20048;-78
2021/05/26 11:05:58;;;;;;;4.35;0.80;;;11.60;97.70;;;;;;4741691;30;20048;-78
2021/05/26 11:08:29;;;;;;;3.58;0.80;;;11.60;98.00;;;;;;4728702;30;20047;-79
2021/05/26 11:10:56;;;;;;;1.90;0.70;;;11.60;98.20;;;;;;4742350;30;20052;-78
2021/05/26 11:13:22;;;;;;;3.75;0.60;;;11.60;98.40;;;;;;4729925;30;20404;-78
2021/05/26 11:15:57;;;;;;;3.10;0.80;;;11.60;98.70;;;;;;4740433;30;20052;-79
2021/05/26 11:20:53;;;;;;;3.30;0.60;;;11.70;99.10;;;;;;4727337;30;20401;-78
2021/05/26 11:23:20;;;;;;;3.42;0.57;;;11.90;99.10;;;;;;4741209;30;20044;-78
2021/05/26 11:25:49;;;;;;;1.90;0.70;;;12.20;99.10;;;;;;4743152;30;20412;-79
2021/05/26 11:28:30;;;;;;;2.42;0.52;;;12.50;99.30;;;;;;4741984;30;20052;-79
2021/05/26 11:31:03;;;;;;;2.20;0.60;;;12.80;99.20;;;;;;4743752;30;20068;-78
2021/05/26 11:33:30;;;;;;;1.33;0.50;;;13.00;99.00;;;;;;4729884;30;20051;-79
2021/05/26 11:36:04;;;;;;;2.20;0.43;;;13.10;98.70;;;;;;4728175;30;20051;-77
2021/05/26 11:38:32;;;;;;;2.13;0.50;;;13.10;98.50;;;;;;4713189;30;20052;-77
2021/05/26 11:41:00;;;;;;;4.68;0.50;;;13.30;98.80;;;;;;4728048;30;20071;-77
2021/05/26 11:43:30;;;;;;;3.45;0.52;;;13.50;98.50;;;;;;4743408;30;20048;-77
2021/05/26 11:46:08;;;;;;;1.98;0.60;;;13.60;98.20;;;;;;4715507;30;20140;-76
2021/05/26 11:48:35;;;;;;;3.22;0.60;;;13.50;97.90;;;;;;4729958;30;20493;-78
2021/05/26 11:51:03;;;;;;;4.07;1.08;;;13.40;98.10;;;;;;4742178;30;20422;-78
2021/05/26 11:53:30;;;;;;;1.42;0.60;;;13.30;98.30;;;;;;4743913;30;20040;-78
2021/05/26 11:56:01;;;;;;;1.90;0.68;;;13.30;98.60;;;;;;4743129;30;20039;-78
2021/05/26 11:58:28;;;;;;;1.90;0.70;;;13.40;98.80;;;;;;4740269;30;20052;-81
2021/05/26 12:01:25;;;;;;;2.63;0.63;;;13.60;98.80;;;;;;4742172;30;20068;-82
2021/05/26 12:03:51;;;;;;;3.25;0.60;;;13.70;98.90;;;;;;4740209;30;20048;-79
2021/05/26 12:06:23;;;;;;;5.68;1.40;;;13.80;98.90;;;;;;4741778;30;20520;-79
2021/05/26 12:08:50;;;;;;;5.30;1.48;;;13.80;98.70;;;;;;4747120;30;20055;-79
2021/05/26 12:11:18;;;;;;;2.67;0.88;;;13.70;98.80;;;;;;4717463;30;20044;-80
2021/05/26 12:13:46;;;;;;;4.50;1.10;;;13.80;99.10;;;;;;4733548;30;20048;-79
2021/05/26 12:16:14;;;;;;;3.25;0.80;;;13.90;99.30;;;;;;4729486;30;20055;-84
2021/05/26 12:18:56;;;;;;;4.47;1.23;;;14.30;99.90;;;;;;4744254;30;20048;-83
2021/05/26 12:21:26;;;;;;;2.10;1.17;;;14.70;99.10;;;;;;4745785;30;20455;-81
2021/05/26 12:24:01;;;;;;;4.05;1.10;;;14.90;99.00;;;;;;4722454;30;20294;-80
2021/05/26 12:26:46;;;;;;;4.95;1.92;;;15.60;99.80;;;;;;4728846;30;20630;-81
2021/05/26 12:29:23;;;;;;;3.78;0.80;;;16.70;99.10;;;;;;4734028;30;20052;-81
2021/05/26 12:31:50;;;;;;;2.08;0.50;;;17.80;97.00;;;;;;4732237;30;20032;-81
2021/05/26 12:34:19;;;;;;;2.20;0.55;;;18.60;95.40;;;;;;4731314;30;20083;-84
2021/05/26 12:36:51;;;;;;;1.30;0.60;;;18.80;92.60;;;;;;4743701;30;20044;-84
2021/05/26 12:39:17;;;;;;;2.40;0.68;;;18.40;89.80;;;;;;4721105;30;20579;-83
2021/05/26 12:41:50;;;;;;;3.08;0.60;;;17.80;90.00;;;;;;4730547;30;20148;-84
2021/05/26 12:44:22;;;;;;;1.17;0.40;;;18.00;91.50;;;;;;4746868;30;20063;-84
2021/05/26 12:46:56;;;;;;;3.08;0.57;;;18.80;90.10;;;;;;4745236;30;20070;-84
2021/05/26 12:49:41;;;;;;;0.98;0.30;;;18.90;86.50;;;;;;4744773;30;20837;-83
2021/05/26 12:52:24;;;;;;;1.75;0.60;;;18.50;87.10;;;;;;4735091;30;20044;-83
2021/05/26 12:54:50;;;;;;;0.80;0.40;;;18.30;88.20;;;;;;4745618;30;20681;-83
2021/05/26 12:57:20;;;;;;;1.17;0.40;;;18.70;88.50;;;;;;4747197;30;20073;-84
2021/05/26 12:59:52;;;;;;;1.08;0.30;;;19.40;86.30;;;;;;4745109;30;20065;-85
2021/05/26 13:02:18;;;;;;;1.20;0.50;;;19.90;83.60;;;;;;4746238;30;20036;-83
2021/05/26 13:04:49;;;;;;;1.15;0.47;;;20.00;80.30;;;;;;4730413;30;20413;-83